sensor_id;sensor_type;location;lat;lon;timestamp;pressure;altitude;pressure_sealevel;temperature;humidity
37832;BME280;23671;38.090;-122.570;2022-12-18T00:01:24;101686.28;;;9.95;68.94
37832;BME280;23671;38.090;-122.570;2022-12-18T00:03:53;101677.56;;;9.94;68.62
37832;BME280;23671;38.090;-122.570;2022-12-18T00:06:23;101670.47;;;9.95;68.70
37832;BME280;23671;38.090;-122.570;2022-12-18T00:08:50;101681.13;;;9.93;68.71
37832;BME280;23671;38.090;-122.570;2022-12-18T00:11:20;101683.75;;;9.93;69.26
37832;BME280;23671;38.090;-122.570;2022-12-18T00:13:48;101676.81;;;9.92;68.96
37832;BME280;23671;38.090;-122.570;2022-12-18T00:16:18;101676.81;;;9.92;68.80
37832;BME280;23671;38.090;-122.570;2022-12-18T00:18:50;101681.22;;;9.92;69.05
37832;BME280;23671;38.090;-122.570;2022-12-18T00:21:17;101671.69;;;9.89;68.61
37832;BME280;23671;38.090;-122.570;2022-12-18T00:23:45;101678.84;;;9.87;68.81
37832;BME280;23671;38.090;-122.570;2022-12-18T00:26:24;101672.06;;;9.83;68.32
37832;BME280;23671;38.090;-122.570;2022-12-18T00:28:52;101671.25;;;9.83;68.28
37832;BME280;23671;38.090;-122.570;2022-12-18T00:31:22;101667.84;;;9.81;68.44
37832;BME280;23671;38.090;-122.570;2022-12-18T00:33:49;101674.13;;;9.78;68.38
37832;BME280;23671;38.090;-122.570;2022-12-18T00:36:22;101664.63;;;9.76;68.01
37832;BME280;23671;38.090;-122.570;2022-12-18T00:38:49;101670.00;;;9.74;67.79
37832;BME280;23671;38.090;-122.570;2022-12-18T00:41:17;101664.06;;;9.71;67.51
37832;BME280;23671;38.090;-122.570;2022-12-18T00:44:06;101679.13;;;9.69;67.54
37832;BME280;23671;38.090;-122.570;2022-12-18T00:46:33;101667.91;;;9.65;67.94
37832;BME280;23671;38.090;-122.570;2022-12-18T00:49:00;101673.19;;;9.65;67.80
37832;BME280;23671;38.090;-122.570;2022-12-18T00:51:28;101668.09;;;9.62;67.46
37832;BME280;23671;38.090;-122.570;2022-12-18T00:53:55;101671.03;;;9.58;67.52
37832;BME280;23671;38.090;-122.570;2022-12-18T00:56:22;101662.34;;;9.56;67.29
37832;BME280;23671;38.090;-122.570;2022-12-18T00:58:50;101662.34;;;9.56;67.62
37832;BME280;23671;38.090;-122.570;2022-12-18T01:01:17;101661.69;;;9.52;67.02
37832;BME280;23671;38.090;-122.570;2022-12-18T01:03:44;101660.16;;;9.48;66.93
37832;BME280;23671;38.090;-122.570;2022-12-18T01:06:14;101656.59;;;9.49;66.57
37832;BME280;23671;38.090;-122.570;2022-12-18T01:08:42;101661.09;;;9.47;67.15
37832;BME280;23671;38.090;-122.570;2022-12-18T01:11:11;101661.47;;;9.41;67.18
37832;BME280;23671;38.090;-122.570;2022-12-18T01:13:38;101662.41;;;9.40;66.50
37832;BME280;23671;38.090;-122.570;2022-12-18T01:16:06;101661.84;;;9.35;66.79
37832;BME280;23671;38.090;-122.570;2022-12-18T01:18:33;101668.03;;;9.34;66.41
37832;BME280;23671;38.090;-122.570;2022-12-18T01:21:04;101657.84;;;9.28;66.97
37832;BME280;23671;38.090;-122.570;2022-12-18T01:23:32;101667.81;;;9.23;66.63
37832;BME280;23671;38.090;-122.570;2022-12-18T01:26:03;101661.78;;;9.21;66.68
37832;BME280;23671;38.090;-122.570;2022-12-18T01:28:30;101658.50;;;9.18;66.37
37832;BME280;23671;38.090;-122.570;2022-12-18T01:30:57;101663.84;;;9.16;66.23
37832;BME280;23671;38.090;-122.570;2022-12-18T01:33:24;101660.28;;;9.17;66.15
37832;BME280;23671;38.090;-122.570;2022-12-18T01:35:51;101659.63;;;9.13;66.53
37832;BME280;23671;38.090;-122.570;2022-12-18T01:38:18;101658.09;;;9.09;66.49
37832;BME280;23671;38.090;-122.570;2022-12-18T01:40:45;101659.97;;;9.07;66.35
37832;BME280;23671;38.090;-122.570;2022-12-18T01:43:12;101672.72;;;8.99;66.53
37832;BME280;23671;38.090;-122.570;2022-12-18T01:45:39;101651.75;;;8.98;66.63
37832;BME280;23671;38.090;-122.570;2022-12-18T01:48:08;101668.47;;;8.97;66.63
37832;BME280;23671;38.090;-122.570;2022-12-18T01:50:36;101661.88;;;8.90;66.14
37832;BME280;23671;38.090;-122.570;2022-12-18T01:53:14;101662.88;;;8.87;66.45
37832;BME280;23671;38.090;-122.570;2022-12-18T01:55:53;101664.69;;;8.87;66.07
37832;BME280;23671;38.090;-122.570;2022-12-18T02:01:10;101667.06;;;8.76;65.97
37832;BME280;23671;38.090;-122.570;2022-12-18T02:03:39;101661.88;;;8.74;66.30
37832;BME280;23671;38.090;-122.570;2022-12-18T02:06:09;101661.22;;;8.71;66.39
37832;BME280;23671;38.090;-122.570;2022-12-18T02:17:16;101646.44;;;8.53;66.45
37832;BME280;23671;38.090;-122.570;2022-12-18T02:28:13;101656.97;;;8.37;65.74
37832;BME280;23671;38.090;-122.570;2022-12-18T02:30:45;101655.09;;;8.39;66.17
37832;BME280;23671;38.090;-122.570;2022-12-18T02:33:15;101656.19;;;8.35;66.04
37832;BME280;23671;38.090;-122.570;2022-12-18T02:35:43;101655.59;;;8.30;66.33
37832;BME280;23671;38.090;-122.570;2022-12-18T02:38:12;101646.31;;;8.23;65.66
37832;BME280;23671;38.090;-122.570;2022-12-18T02:40:41;101650.66;;;8.24;65.94
37832;BME280;23671;38.090;-122.570;2022-12-18T02:43:11;101650.22;;;8.16;66.34
37832;BME280;23671;38.090;-122.570;2022-12-18T02:45:49;101658.78;;;8.19;65.58
37832;BME280;23671;38.090;-122.570;2022-12-18T02:48:19;101669.47;;;8.16;65.39
37832;BME280;23671;38.090;-122.570;2022-12-18T02:53:45;101656.56;;;8.12;65.35
37832;BME280;23671;38.090;-122.570;2022-12-18T02:56:27;101664.72;;;8.07;65.91
37832;BME280;23671;38.090;-122.570;2022-12-18T03:01:45;101662.41;;;8.01;65.40
37832;BME280;23671;38.090;-122.570;2022-12-18T03:07:12;101659.94;;;7.98;65.88
37832;BME280;23671;38.090;-122.570;2022-12-18T03:09:45;101669.09;;;7.91;66.00
37832;BME280;23671;38.090;-122.570;2022-12-18T03:12:32;101664.69;;;7.92;65.63
37832;BME280;23671;38.090;-122.570;2022-12-18T03:17:45;101660.91;;;7.80;65.42
37832;BME280;23671;38.090;-122.570;2022-12-18T03:20:17;101655.13;;;7.74;66.13
37832;BME280;23671;38.090;-122.570;2022-12-18T03:22:52;101650.28;;;7.66;65.70
37832;BME280;23671;38.090;-122.570;2022-12-18T03:25:20;101664.41;;;7.64;65.59
37832;BME280;23671;38.090;-122.570;2022-12-18T03:27:51;101655.00;;;7.60;65.92
37832;BME280;23671;38.090;-122.570;2022-12-18T03:30:19;101657.09;;;7.53;65.80
37832;BME280;23671;38.090;-122.570;2022-12-18T03:32:56;101657.31;;;7.49;65.99
37832;BME280;23671;38.090;-122.570;2022-12-18T03:35:31;101655.88;;;7.43;66.10
37832;BME280;23671;38.090;-122.570;2022-12-18T03:38:00;101656.09;;;7.38;65.75
37832;BME280;23671;38.090;-122.570;2022-12-18T03:40:53;101654.56;;;7.34;66.41
37832;BME280;23671;38.090;-122.570;2022-12-18T03:43:41;101652.16;;;7.30;66.08
37832;BME280;23671;38.090;-122.570;2022-12-18T03:46:33;101652.25;;;7.28;66.35
37832;BME280;23671;38.090;-122.570;2022-12-18T03:49:16;101656.94;;;7.22;66.21
37832;BME280;23671;38.090;-122.570;2022-12-18T03:51:53;101655.41;;;7.18;66.19
37832;BME280;23671;38.090;-122.570;2022-12-18T03:54:21;101650.31;;;7.15;66.05
37832;BME280;23671;38.090;-122.570;2022-12-18T03:57:04;101660.19;;;7.10;66.55
37832;BME280;23671;38.090;-122.570;2022-12-18T03:59:33;101650.63;;;7.09;66.26
37832;BME280;23671;38.090;-122.570;2022-12-18T04:02:02;101655.97;;;7.07;66.28
37832;BME280;23671;38.090;-122.570;2022-12-18T04:04:32;101664.03;;;7.03;66.08
37832;BME280;23671;38.090;-122.570;2022-12-18T04:07:01;101648.47;;;7.00;66.13
37832;BME280;23671;38.090;-122.570;2022-12-18T04:09:30;101656.47;;;6.97;66.42
37832;BME280;23671;38.090;-122.570;2022-12-18T04:11:58;101659.31;;;6.92;66.22
37832;BME280;23671;38.090;-122.570;2022-12-18T04:14:25;101658.47;;;6.92;66.38
37832;BME280;23671;38.090;-122.570;2022-12-18T04:16:52;101656.75;;;6.91;66.37
37832;BME280;23671;38.090;-122.570;2022-12-18T04:19:19;101661.53;;;6.83;66.37
37832;BME280;23671;38.090;-122.570;2022-12-18T04:21:46;101674.81;;;6.80;66.41
37832;BME280;23671;38.090;-122.570;2022-12-18T04:24:13;101663.53;;;6.78;66.38
37832;BME280;23671;38.090;-122.570;2022-12-18T04:26:40;101660.91;;;6.78;66.21
37832;BME280;23671;38.090;-122.570;2022-12-18T04:29:07;101661.09;;;6.75;66.39
37832;BME280;23671;38.090;-122.570;2022-12-18T04:31:34;101664.63;;;6.74;66.43
37832;BME280;23671;38.090;-122.570;2022-12-18T04:34:01;101660.44;;;6.70;66.48
37832;BME280;23671;38.090;-122.570;2022-12-18T04:36:28;101660.59;;;6.67;66.44
37832;BME280;23671;38.090;-122.570;2022-12-18T04:38:55;101665.06;;;6.65;66.31
37832;BME280;23671;38.090;-122.570;2022-12-18T04:41:22;101664.28;;;6.63;66.50
37832;BME280;23671;38.090;-122.570;2022-12-18T04:43:49;101668.88;;;6.58;66.62
37832;BME280;23671;38.090;-122.570;2022-12-18T04:46:16;101664.66;;;6.55;66.54
37832;BME280;23671;38.090;-122.570;2022-12-18T04:48:46;101666.41;;;6.55;66.46
37832;BME280;23671;38.090;-122.570;2022-12-18T04:51:13;101658.53;;;6.55;66.21
37832;BME280;23671;38.090;-122.570;2022-12-18T04:53:40;101661.38;;;6.50;66.46
37832;BME280;23671;38.090;-122.570;2022-12-18T04:56:14;101663.38;;;6.45;66.39
37832;BME280;23671;38.090;-122.570;2022-12-18T04:58:43;101665.31;;;6.41;66.69
37832;BME280;23671;38.090;-122.570;2022-12-18T05:01:12;101657.44;;;6.41;66.61
37832;BME280;23671;38.090;-122.570;2022-12-18T05:03:39;101661.81;;;6.41;66.49
37832;BME280;23671;38.090;-122.570;2022-12-18T05:06:07;101658.50;;;6.37;66.43
37832;BME280;23671;38.090;-122.570;2022-12-18T05:08:34;101661.19;;;6.36;66.51
37832;BME280;23671;38.090;-122.570;2022-12-18T05:11:07;101664.81;;;6.33;66.61
37832;BME280;23671;38.090;-122.570;2022-12-18T05:13:34;101661.59;;;6.27;66.61
37832;BME280;23671;38.090;-122.570;2022-12-18T05:16:02;101667.78;;;6.26;66.55
37832;BME280;23671;38.090;-122.570;2022-12-18T05:18:29;101658.19;;;6.25;66.51
37832;BME280;23671;38.090;-122.570;2022-12-18T05:20:57;101655.56;;;6.25;66.48
37832;BME280;23671;38.090;-122.570;2022-12-18T05:23:25;101655.81;;;6.20;66.47
37832;BME280;23671;38.090;-122.570;2022-12-18T05:25:56;101655.09;;;6.17;66.53
37832;BME280;23671;38.090;-122.570;2022-12-18T05:28:25;101654.53;;;6.10;66.57
37832;BME280;23671;38.090;-122.570;2022-12-18T05:30:55;101653.66;;;6.10;66.41
37832;BME280;23671;38.090;-122.570;2022-12-18T05:33:24;101659.13;;;6.05;66.89
37832;BME280;23671;38.090;-122.570;2022-12-18T05:35:57;101653.03;;;6.05;66.32
37832;BME280;23671;38.090;-122.570;2022-12-18T05:38:25;101645.44;;;5.99;66.99
37832;BME280;23671;38.090;-122.570;2022-12-18T05:40:53;101643.59;;;6.01;66.37
37832;BME280;23671;38.090;-122.570;2022-12-18T05:43:21;101638.56;;;5.96;66.62
37832;BME280;23671;38.090;-122.570;2022-12-18T05:45:49;101642.97;;;5.96;66.72
37832;BME280;23671;38.090;-122.570;2022-12-18T05:48:17;101637.78;;;5.94;66.72
37832;BME280;23671;38.090;-122.570;2022-12-18T05:50:46;101648.25;;;5.94;66.62
37832;BME280;23671;38.090;-122.570;2022-12-18T05:53:16;101642.25;;;5.92;66.39
37832;BME280;23671;38.090;-122.570;2022-12-18T05:55:45;101653.72;;;5.90;66.89
37832;BME280;23671;38.090;-122.570;2022-12-18T05:58:13;101643.53;;;5.84;66.64
37832;BME280;23671;38.090;-122.570;2022-12-18T06:00:42;101651.44;;;5.82;66.71
37832;BME280;23671;38.090;-122.570;2022-12-18T06:03:10;101644.47;;;5.81;66.46
37832;BME280;23671;38.090;-122.570;2022-12-18T06:05:40;101637.66;;;5.77;66.96
37832;BME280;23671;38.090;-122.570;2022-12-18T06:08:07;101648.06;;;5.79;66.70
37832;BME280;23671;38.090;-122.570;2022-12-18T06:10:34;101639.50;;;5.75;67.00
37832;BME280;23671;38.090;-122.570;2022-12-18T06:13:02;101645.59;;;5.76;66.67
37832;BME280;23671;38.090;-122.570;2022-12-18T06:15:29;101641.25;;;5.75;66.43
37832;BME280;23671;38.090;-122.570;2022-12-18T06:17:56;101651.88;;;5.72;66.57
37832;BME280;23671;38.090;-122.570;2022-12-18T06:20:23;101651.97;;;5.70;66.63
37832;BME280;23671;38.090;-122.570;2022-12-18T06:22:50;101640.78;;;5.67;66.42
37832;BME280;23671;38.090;-122.570;2022-12-18T06:25:17;101645.25;;;5.63;66.52
37832;BME280;23671;38.090;-122.570;2022-12-18T06:27:46;101640.31;;;5.57;66.97
37832;BME280;23671;38.090;-122.570;2022-12-18T06:30:14;101640.31;;;5.57;66.91
37832;BME280;23671;38.090;-122.570;2022-12-18T06:32:41;101645.56;;;5.57;66.84
37832;BME280;23671;38.090;-122.570;2022-12-18T06:35:08;101642.09;;;5.57;66.41
37832;BME280;23671;38.090;-122.570;2022-12-18T06:37:35;101641.41;;;5.51;66.65
37832;BME280;23671;38.090;-122.570;2022-12-18T06:40:02;101633.69;;;5.48;66.78
37832;BME280;23671;38.090;-122.570;2022-12-18T06:42:29;101639.91;;;5.46;66.81
37832;BME280;23671;38.090;-122.570;2022-12-18T06:44:56;101653.78;;;5.48;66.68
37832;BME280;23671;38.090;-122.570;2022-12-18T06:47:23;101652.38;;;5.41;67.10
37832;BME280;23671;38.090;-122.570;2022-12-18T06:49:50;101646.19;;;5.42;66.93
37832;BME280;23671;38.090;-122.570;2022-12-18T06:52:17;101651.44;;;5.42;66.65
37832;BME280;23671;38.090;-122.570;2022-12-18T06:54:44;101640.13;;;5.41;66.32
37832;BME280;23671;38.090;-122.570;2022-12-18T06:57:11;101643.09;;;5.34;66.53
37832;BME280;23671;38.090;-122.570;2022-12-18T06:59:38;101650.78;;;5.37;66.76
37832;BME280;23671;38.090;-122.570;2022-12-18T07:02:05;101648.38;;;5.32;66.89
37832;BME280;23671;38.090;-122.570;2022-12-18T07:04:32;101643.09;;;5.34;66.32
37832;BME280;23671;38.090;-122.570;2022-12-18T07:06:59;101649.28;;;5.31;67.00
37832;BME280;23671;38.090;-122.570;2022-12-18T07:09:26;101643.19;;;5.31;66.94
37832;BME280;23671;38.090;-122.570;2022-12-18T07:11:53;101648.50;;;5.29;66.67
37832;BME280;23671;38.090;-122.570;2022-12-18T07:14:20;101654.72;;;5.27;66.57
37832;BME280;23671;38.090;-122.570;2022-12-18T07:16:47;101654.06;;;5.22;66.45
37832;BME280;23671;38.090;-122.570;2022-12-18T07:19:14;101646.84;;;5.27;66.49
37832;BME280;23671;38.090;-122.570;2022-12-18T07:21:41;101645.25;;;5.24;66.47
37832;BME280;23671;38.090;-122.570;2022-12-18T07:24:08;101650.25;;;5.29;66.27
37832;BME280;23671;38.090;-122.570;2022-12-18T07:26:35;101651.19;;;5.28;66.10
37832;BME280;23671;38.090;-122.570;2022-12-18T07:29:02;101643.66;;;5.20;66.51
37832;BME280;23671;38.090;-122.570;2022-12-18T07:31:29;101636.63;;;5.21;66.13
37832;BME280;23671;38.090;-122.570;2022-12-18T07:33:56;101634.31;;;5.15;66.19
37832;BME280;23671;38.090;-122.570;2022-12-18T07:36:24;101639.72;;;5.10;66.30
37832;BME280;23671;38.090;-122.570;2022-12-18T07:38:51;101636.44;;;5.05;66.43
37832;BME280;23671;38.090;-122.570;2022-12-18T07:41:19;101633.03;;;5.03;66.56
37832;BME280;23671;38.090;-122.570;2022-12-18T07:43:47;101635.72;;;5.02;66.81
37832;BME280;23671;38.090;-122.570;2022-12-18T07:46:15;101640.16;;;5.00;66.49
37832;BME280;23671;38.090;-122.570;2022-12-18T07:48:43;101639.06;;;5.05;66.20
37832;BME280;23671;38.090;-122.570;2022-12-18T07:51:10;101634.69;;;5.06;66.53
37832;BME280;23671;38.090;-122.570;2022-12-18T07:53:38;101637.28;;;5.06;66.31
37832;BME280;23671;38.090;-122.570;2022-12-18T07:56:12;101633.34;;;4.96;66.52
37832;BME280;23671;38.090;-122.570;2022-12-18T07:58:39;101638.34;;;5.02;66.43
37832;BME280;23671;38.090;-122.570;2022-12-18T08:01:11;101637.78;;;4.94;66.64
37832;BME280;23671;38.090;-122.570;2022-12-18T08:03:39;101638.34;;;5.02;66.13
37832;BME280;23671;38.090;-122.570;2022-12-18T08:06:08;101640.41;;;4.94;66.47
37832;BME280;23671;38.090;-122.570;2022-12-18T08:08:36;101633.25;;;4.99;65.96
37832;BME280;23671;38.090;-122.570;2022-12-18T08:11:03;101635.31;;;4.91;66.28
37832;BME280;23671;38.090;-122.570;2022-12-18T08:13:30;101630.09;;;4.91;66.46
37832;BME280;23671;38.090;-122.570;2022-12-18T08:16:03;101625.88;;;4.87;66.34
37832;BME280;23671;38.090;-122.570;2022-12-18T08:18:33;101635.69;;;4.82;66.51
37832;BME280;23671;38.090;-122.570;2022-12-18T08:21:15;101642.06;;;4.75;66.52
37832;BME280;23671;38.090;-122.570;2022-12-18T08:23:42;101648.88;;;4.79;66.31
37832;BME280;23671;38.090;-122.570;2022-12-18T08:26:11;101644.75;;;4.73;66.55
37832;BME280;23671;38.090;-122.570;2022-12-18T08:28:38;101648.06;;;4.78;66.25
37832;BME280;23671;38.090;-122.570;2022-12-18T08:31:06;101647.31;;;4.75;66.13
37832;BME280;23671;38.090;-122.570;2022-12-18T08:33:34;101642.84;;;4.78;66.44
37832;BME280;23671;38.090;-122.570;2022-12-18T08:36:03;101642.06;;;4.75;66.03
37832;BME280;23671;38.090;-122.570;2022-12-18T08:38:31;101643.91;;;4.73;66.48
37832;BME280;23671;38.090;-122.570;2022-12-18T08:41:05;101637.94;;;4.69;66.65
37832;BME280;23671;38.090;-122.570;2022-12-18T08:43:33;101631.75;;;4.72;66.19
37832;BME280;23671;38.090;-122.570;2022-12-18T08:46:19;101645.00;;;4.67;66.63
37832;BME280;23671;38.090;-122.570;2022-12-18T08:48:47;101652.91;;;4.66;66.56
37832;BME280;23671;38.090;-122.570;2022-12-18T08:51:16;101639.84;;;4.66;66.20
37832;BME280;23671;38.090;-122.570;2022-12-18T08:53:44;101637.34;;;4.63;66.30
37832;BME280;23671;38.090;-122.570;2022-12-18T08:56:12;101643.72;;;4.55;66.30
37832;BME280;23671;38.090;-122.570;2022-12-18T08:58:40;101649.66;;;4.60;66.10
37832;BME280;23671;38.090;-122.570;2022-12-18T09:01:09;101649.81;;;4.56;66.27
37832;BME280;23671;38.090;-122.570;2022-12-18T09:03:37;101650.75;;;4.55;66.76
37832;BME280;23671;38.090;-122.570;2022-12-18T09:06:05;101644.75;;;4.51;66.25
37832;BME280;23671;38.090;-122.570;2022-12-18T09:08:32;101644.75;;;4.51;66.56
37832;BME280;23671;38.090;-122.570;2022-12-18T09:11:01;101648.28;;;4.50;66.35
37832;BME280;23671;38.090;-122.570;2022-12-18T09:13:28;101641.66;;;4.42;66.62
37832;BME280;23671;38.090;-122.570;2022-12-18T09:15:56;101642.50;;;4.42;66.51
37832;BME280;23671;38.090;-122.570;2022-12-18T09:18:23;101647.19;;;4.34;66.95
37832;BME280;23671;38.090;-122.570;2022-12-18T09:20:51;101650.72;;;4.33;67.18
37832;BME280;23671;38.090;-122.570;2022-12-18T09:23:19;101656.84;;;4.32;66.71
37832;BME280;23671;38.090;-122.570;2022-12-18T09:25:46;101653.34;;;4.33;66.73
37832;BME280;23671;38.090;-122.570;2022-12-18T09:28:16;101657.63;;;4.34;66.40
37832;BME280;23671;38.090;-122.570;2022-12-18T09:30:47;101659.34;;;4.35;66.69
37832;BME280;23671;38.090;-122.570;2022-12-18T09:33:16;101647.38;;;4.30;66.87
37832;BME280;23671;38.090;-122.570;2022-12-18T09:35:44;101651.91;;;4.25;66.93
37832;BME280;23671;38.090;-122.570;2022-12-18T09:38:17;101654.66;;;4.22;66.66
37832;BME280;23671;38.090;-122.570;2022-12-18T09:40:45;101645.94;;;4.21;66.87
37832;BME280;23671;38.090;-122.570;2022-12-18T09:43:19;101657.25;;;4.22;66.67
37832;BME280;23671;38.090;-122.570;2022-12-18T09:45:53;101657.19;;;4.23;66.75
37832;BME280;23671;38.090;-122.570;2022-12-18T09:50:59;101661.19;;;4.10;66.99
37832;BME280;23671;38.090;-122.570;2022-12-18T09:53:31;101666.41;;;4.10;67.05
37832;BME280;23671;38.090;-122.570;2022-12-18T09:56:01;101659.59;;;4.06;67.18
37832;BME280;23671;38.090;-122.570;2022-12-18T09:58:46;101664.81;;;4.06;66.84
37832;BME280;23671;38.090;-122.570;2022-12-18T10:01:21;101661.34;;;4.06;67.17
37832;BME280;23671;38.090;-122.570;2022-12-18T10:03:49;101670.00;;;4.08;67.04
37832;BME280;23671;38.090;-122.570;2022-12-18T10:12:17;101673.63;;;4.04;66.84
37832;BME280;23671;38.090;-122.570;2022-12-18T10:17:26;101670.44;;;3.96;67.04
37832;BME280;23671;38.090;-122.570;2022-12-18T10:28:17;101684.41;;;3.95;67.03
37832;BME280;23671;38.090;-122.570;2022-12-18T10:30:46;101679.41;;;3.89;66.76
37832;BME280;23671;38.090;-122.570;2022-12-18T10:33:19;101690.59;;;3.92;66.84
37832;BME280;23671;38.090;-122.570;2022-12-18T10:35:48;101686.22;;;3.93;66.66
37832;BME280;23671;38.090;-122.570;2022-12-18T10:43:35;101684.97;;;3.80;67.17
37832;BME280;23671;38.090;-122.570;2022-12-18T10:48:54;101703.19;;;3.81;66.78
37832;BME280;23671;38.090;-122.570;2022-12-18T10:54:03;101694.78;;;3.73;66.83
37832;BME280;23671;38.090;-122.570;2022-12-18T10:56:34;101701.72;;;3.74;66.93
37832;BME280;23671;38.090;-122.570;2022-12-18T10:59:05;101692.16;;;3.73;67.13
37832;BME280;23671;38.090;-122.570;2022-12-18T11:01:52;101691.47;;;3.68;67.46
37832;BME280;23671;38.090;-122.570;2022-12-18T11:04:25;101692.31;;;3.68;67.13
37832;BME280;23671;38.090;-122.570;2022-12-18T11:09:32;101699.41;;;3.65;66.97
37832;BME280;23671;38.090;-122.570;2022-12-18T11:12:02;101688.00;;;3.67;66.69
37832;BME280;23671;38.090;-122.570;2022-12-18T11:14:56;101688.88;;;3.68;67.12
37832;BME280;23671;38.090;-122.570;2022-12-18T11:17:32;101685.50;;;3.64;66.71
37832;BME280;23671;38.090;-122.570;2022-12-18T11:20:05;101688.06;;;3.66;66.81
37832;BME280;23671;38.090;-122.570;2022-12-18T11:22:37;101687.63;;;3.53;67.34
37832;BME280;23671;38.090;-122.570;2022-12-18T11:25:18;101670.09;;;3.57;67.01
37832;BME280;23671;38.090;-122.570;2022-12-18T11:27:58;101679.88;;;3.52;67.30
37832;BME280;23671;38.090;-122.570;2022-12-18T11:30:34;101673.72;;;3.53;67.08
37832;BME280;23671;38.090;-122.570;2022-12-18T11:33:12;101679.00;;;3.51;67.21
37832;BME280;23671;38.090;-122.570;2022-12-18T11:38:37;101668.50;;;3.53;67.17
37832;BME280;23671;38.090;-122.570;2022-12-18T11:43:58;101668.69;;;3.48;67.49
37832;BME280;23671;38.090;-122.570;2022-12-18T11:46:38;101668.63;;;3.50;67.05
37832;BME280;23671;38.090;-122.570;2022-12-18T11:49:42;101678.38;;;3.45;67.13
37832;BME280;23671;38.090;-122.570;2022-12-18T11:52:38;101680.88;;;3.48;67.29
37832;BME280;23671;38.090;-122.570;2022-12-18T11:55:12;101674.78;;;3.47;67.18
37832;BME280;23671;38.090;-122.570;2022-12-18T12:00:21;101671.50;;;3.42;67.08
37832;BME280;23671;38.090;-122.570;2022-12-18T12:06:15;101677.84;;;3.35;67.39
37832;BME280;23671;38.090;-122.570;2022-12-18T12:09:12;101683.09;;;3.34;67.36
37832;BME280;23671;38.090;-122.570;2022-12-18T12:17:13;101674.69;;;3.26;67.49
37832;BME280;23671;38.090;-122.570;2022-12-18T12:20:25;101676.50;;;3.24;67.42
37832;BME280;23671;38.090;-122.570;2022-12-18T12:23:05;101670.25;;;3.28;67.32
37832;BME280;23671;38.090;-122.570;2022-12-18T12:34:24;101654.81;;;3.22;67.13
37832;BME280;23671;38.090;-122.570;2022-12-18T12:39:42;101655.63;;;3.24;66.97
37832;BME280;23671;38.090;-122.570;2022-12-18T12:45:14;101650.56;;;3.19;67.38
37832;BME280;23671;38.090;-122.570;2022-12-18T12:47:44;101641.88;;;3.19;67.45
37832;BME280;23671;38.090;-122.570;2022-12-18T12:50:17;101643.78;;;3.14;67.51
37832;BME280;23671;38.090;-122.570;2022-12-18T12:52:53;101646.28;;;3.17;67.21
37832;BME280;23671;38.090;-122.570;2022-12-18T12:55:24;101651.63;;;3.14;67.35
37832;BME280;23671;38.090;-122.570;2022-12-18T12:58:14;101658.63;;;3.12;67.26
37832;BME280;23671;38.090;-122.570;2022-12-18T13:01:02;101654.28;;;3.12;67.41
37832;BME280;23671;38.090;-122.570;2022-12-18T13:08:58;101656.03;;;3.12;67.31
37832;BME280;23671;38.090;-122.570;2022-12-18T13:11:42;101657.03;;;3.08;67.16
37832;BME280;23671;38.090;-122.570;2022-12-18T13:14:39;101657.13;;;3.05;67.40
37832;BME280;23671;38.090;-122.570;2022-12-18T13:20:10;101656.22;;;3.06;67.08
37832;BME280;23671;38.090;-122.570;2022-12-18T13:22:46;101665.75;;;3.07;67.28
37832;BME280;23671;38.090;-122.570;2022-12-18T13:25:35;101678.00;;;3.05;66.80
37832;BME280;23671;38.090;-122.570;2022-12-18T13:28:14;101673.56;;;3.07;67.09
37832;BME280;23671;38.090;-122.570;2022-12-18T13:30:43;101677.97;;;3.06;67.04
37832;BME280;23671;38.090;-122.570;2022-12-18T13:35:53;101674.63;;;3.01;66.95
37832;BME280;23671;38.090;-122.570;2022-12-18T13:38:32;101681.63;;;3.01;66.86
37832;BME280;23671;38.090;-122.570;2022-12-18T13:41:21;101674.50;;;3.06;66.84
37832;BME280;23671;38.090;-122.570;2022-12-18T13:43:52;101673.81;;;3.01;67.17
37832;BME280;23671;38.090;-122.570;2022-12-18T13:46:21;101673.81;;;2.99;67.09
37832;BME280;23671;38.090;-122.570;2022-12-18T13:51:49;101674.81;;;2.97;66.98
37832;BME280;23671;38.090;-122.570;2022-12-18T13:56:51;101675.69;;;2.96;66.89
37832;BME280;23671;38.090;-122.570;2022-12-18T13:59:22;101678.41;;;2.93;67.08
37832;BME280;23671;38.090;-122.570;2022-12-18T14:01:53;101673.13;;;2.94;66.99
37832;BME280;23671;38.090;-122.570;2022-12-18T14:04:25;101684.44;;;2.93;67.03
37832;BME280;23671;38.090;-122.570;2022-12-18T14:06:57;101686.22;;;2.93;67.02
37832;BME280;23671;38.090;-122.570;2022-12-18T14:09:30;101692.53;;;2.86;67.18
37832;BME280;23671;38.090;-122.570;2022-12-18T14:11:58;101695.06;;;2.89;66.90
37832;BME280;23671;38.090;-122.570;2022-12-18T14:14:47;101697.75;;;2.86;66.94
37832;BME280;23671;38.090;-122.570;2022-12-18T14:17:15;101696.13;;;2.82;67.22
37832;BME280;23671;38.090;-122.570;2022-12-18T14:19:47;101699.53;;;2.84;67.39
37832;BME280;23671;38.090;-122.570;2022-12-18T14:22:20;101690.09;;;2.81;67.28
37832;BME280;23671;38.090;-122.570;2022-12-18T14:27:47;101685.75;;;2.80;66.88
37832;BME280;23671;38.090;-122.570;2022-12-18T14:30:38;101692.81;;;2.76;67.17
37832;BME280;23671;38.090;-122.570;2022-12-18T14:33:10;101691.03;;;2.78;67.00
37832;BME280;23671;38.090;-122.570;2022-12-18T14:36:01;101689.41;;;2.74;67.33
37832;BME280;23671;38.090;-122.570;2022-12-18T14:38:32;101696.38;;;2.74;67.23
37832;BME280;23671;38.090;-122.570;2022-12-18T14:41:13;101699.78;;;2.76;67.15
37832;BME280;23671;38.090;-122.570;2022-12-18T14:43:42;101698.16;;;2.73;67.13
37832;BME280;23671;38.090;-122.570;2022-12-18T14:46:29;101700.84;;;2.70;67.13